Time;durP1;ratioP1;P1;durP2;ratioP2;P2;SDS_P1;SDS_P2;PMS_P1;PMS_P2;Temp;Humidity;BMP_temperature;BMP_pressure;BME280_temperature;BME280_humidity;BME280_pressure;Samples;Min_cycle;Max_cycle;Signal;HPM_P1;HPM_P2
2021/01/14 00:01:33;;;;;;;1.90;1.30;;;;;;;;;;10284255;28;20090;-64
2021/01/14 00:06:30;;;;;;;3.15;1.05;;;;;;;;;;10290583;28;20048;-63
2021/01/14 00:11:28;;;;;;;4.17;1.00;;;;;;;;;;10285644;28;20025;-63
2021/01/14 00:16:25;;;;;;;3.23;1.37;;;;;;;;;;10281618;28;20038;-63
2021/01/14 00:21:22;;;;;;;2.27;0.90;;;;;;;;;;10288729;28;20124;-62
2021/01/14 00:26:20;;;;;;;2.67;1.30;;;;;;;;;;10295109;28;20037;-64
2021/01/14 00:31:20;;;;;;;2.37;1.30;;;;;;;;;;10297117;28;20037;-63
2021/01/14 00:36:30;;;;;;;2.30;1.08;;;;;;;;;;10289477;28;20511;-63
2021/01/14 00:41:27;;;;;;;5.40;1.50;;;;;;;;;;10294785;28;20574;-63
2021/01/14 00:46:25;;;;;;;6.03;1.50;;;;;;;;;;10295472;28;20034;-64
2021/01/14 00:51:31;;;;;;;2.17;1.33;;;;;;;;;;10289990;28;20033;-64
2021/01/14 00:56:35;;;;;;;2.63;1.60;;;;;;;;;;10288725;28;20287;-64
2021/01/14 01:01:33;;;;;;;3.25;1.40;;;;;;;;;;10300205;28;20395;-64
2021/01/14 01:06:35;;;;;;;5.47;1.42;;;;;;;;;;10291858;28;20067;-64
2021/01/14 01:11:32;;;;;;;2.20;1.50;;;;;;;;;;10294506;28;20036;-65
2021/01/14 01:16:30;;;;;;;2.90;1.40;;;;;;;;;;10298723;28;20503;-62
2021/01/14 01:21:27;;;;;;;4.27;1.87;;;;;;;;;;10295442;28;20038;-63
2021/01/14 01:26:24;;;;;;;3.13;1.63;;;;;;;;;;10284118;28;20056;-64
2021/01/14 01:31:22;;;;;;;6.10;2.13;;;;;;;;;;10285513;28;20624;-65
2021/01/14 01:36:19;;;;;;;1.70;1.47;;;;;;;;;;10297798;28;20033;-64
2021/01/14 01:41:16;;;;;;;4.37;1.73;;;;;;;;;;10281747;28;20136;-63
2021/01/14 01:46:21;;;;;;;10.53;2.30;;;;;;;;;;10285021;28;20038;-64
2021/01/14 01:51:19;;;;;;;4.70;1.85;;;;;;;;;;10291787;28;20033;-64
2021/01/14 01:56:17;;;;;;;5.70;2.13;;;;;;;;;;10285087;28;20095;-65
2021/01/14 02:01:14;;;;;;;7.53;1.90;;;;;;;;;;10288810;28;20575;-64
2021/01/14 02:06:12;;;;;;;4.60;2.13;;;;;;;;;;10287269;28;20045;-65
2021/01/14 02:11:24;;;;;;;7.03;2.40;;;;;;;;;;10285305;28;20041;-64
2021/01/14 02:16:22;;;;;;;7.13;2.85;;;;;;;;;;10283516;28;20516;-64
2021/01/14 02:21:19;;;;;;;5.65;3.20;;;;;;;;;;10282271;28;20033;-64
2021/01/14 02:26:26;;;;;;;8.63;2.83;;;;;;;;;;10296690;28;20029;-64
2021/01/14 02:31:24;;;;;;;9.13;3.03;;;;;;;;;;10295733;28;20311;-65
2021/01/14 02:36:23;;;;;;;6.00;3.00;;;;;;;;;;10271899;28;20130;-65
2021/01/14 02:41:21;;;;;;;5.40;2.80;;;;;;;;;;10279831;28;20046;-65
2021/01/14 02:46:19;;;;;;;3.47;2.50;;;;;;;;;;10288156;28;20376;-64
2021/01/14 02:51:16;;;;;;;;;;;;;;;;;;10292503;28;20038;-65
2021/01/14 02:56:14;;;;;;;5.65;2.90;;;;;;;;;;10292023;28;20383;-63
2021/01/14 03:01:11;;;;;;;6.65;3.00;;;;;;;;;;10287824;28;20124;-63
2021/01/14 03:06:09;;;;;;;10.03;3.37;;;;;;;;;;10283305;28;20032;-65
2021/01/14 03:11:06;;;;;;;7.93;3.07;;;;;;;;;;10295593;28;20048;-64
2021/01/14 03:16:04;;;;;;;9.77;3.03;;;;;;;;;;10271383;28;20471;-65
2021/01/14 03:21:01;;;;;;;9.47;3.20;;;;;;;;;;10275868;28;20037;-64
2021/01/14 03:25:58;;;;;;;10.80;3.80;;;;;;;;;;10291468;28;20076;-64
2021/01/14 03:30:56;;;;;;;8.37;3.43;;;;;;;;;;10292037;28;20503;-65
2021/01/14 03:35:54;;;;;;;8.30;3.27;;;;;;;;;;10295918;28;20041;-63
2021/01/14 03:40:51;;;;;;;6.40;2.92;;;;;;;;;;10293486;28;20504;-64
2021/01/14 03:45:48;;;;;;;6.87;2.97;;;;;;;;;;10291517;28;20433;-64
2021/01/14 03:50:46;;;;;;;9.33;2.93;;;;;;;;;;10294821;28;20030;-63
2021/01/14 03:55:43;;;;;;;8.73;3.17;;;;;;;;;;10294492;28;20136;-64
2021/01/14 04:00:41;;;;;;;7.83;3.27;;;;;;;;;;10287412;28;20041;-64
2021/01/14 04:05:38;;;;;;;9.15;3.42;;;;;;;;;;10299386;28;20656;-64
2021/01/14 04:10:36;;;;;;;5.43;3.00;;;;;;;;;;10296881;28;20039;-65
2021/01/14 04:15:33;;;;;;;9.23;3.77;;;;;;;;;;10301797;28;20029;-64
2021/01/14 04:20:31;;;;;;;12.10;4.10;;;;;;;;;;10302535;28;20113;-64
2021/01/14 04:25:30;;;;;;;5.57;2.83;;;;;;;;;;10299010;28;20067;-63
2021/01/14 04:30:31;;;;;;;5.93;3.30;;;;;;;;;;10302061;28;20150;-64
2021/01/14 04:35:28;;;;;;;8.18;3.42;;;;;;;;;;10291597;28;20106;-63
2021/01/14 04:40:26;;;;;;;13.10;4.47;;;;;;;;;;10300127;28;20029;-64
2021/01/14 04:45:23;;;;;;;6.00;3.40;;;;;;;;;;10298358;28;20025;-63
2021/01/14 04:50:21;;;;;;;5.37;2.87;;;;;;;;;;10297675;28;20087;-63
2021/01/14 04:55:20;;;;;;;6.60;3.38;;;;;;;;;;10299612;28;20029;-64
2021/01/14 05:00:19;;;;;;;11.55;3.63;;;;;;;;;;10297935;28;20107;-63
2021/01/14 05:05:16;;;;;;;;;;;;;;;;;;10288393;28;20040;-64
2021/01/14 05:10:18;;;;;;;11.52;4.03;;;;;;;;;;10300929;28;19919;-65
2021/01/14 05:15:16;;;;;;;7.32;3.55;;;;;;;;;;10296260;28;20033;-64
2021/01/14 05:20:13;;;;;;;6.80;3.27;;;;;;;;;;10296194;28;20399;-64
2021/01/14 05:25:10;;;;;;;7.17;3.63;;;;;;;;;;10290909;28;20510;-64
2021/01/14 05:30:09;;;;;;;9.97;4.63;;;;;;;;;;10307153;28;20061;-64
2021/01/14 05:35:07;;;;;;;5.78;3.38;;;;;;;;;;10301186;28;20049;-64
2021/01/14 05:40:05;;;;;;;;;;;;;;;;;;10288527;28;20037;-64
2021/01/14 05:45:03;;;;;;;5.00;2.53;;;;;;;;;;10299879;28;19913;-64
2021/01/14 05:50:01;;;;;;;9.32;3.70;;;;;;;;;;10281341;28;20040;-63
2021/01/14 05:54:59;;;;;;;8.00;3.25;;;;;;;;;;10289353;28;20045;-64
2021/01/14 05:59:57;;;;;;;;;;;;;;;;;;10294277;28;20412;-64
2021/01/14 06:04:54;;;;;;;7.75;3.67;;;;;;;;;;10295343;28;19921;-64
2021/01/14 06:09:51;;;;;;;9.43;4.00;;;;;;;;;;10291028;28;20045;-64
2021/01/14 06:14:49;;;;;;;6.63;3.40;;;;;;;;;;10284748;28;20566;-65
2021/01/14 06:19:46;;;;;;;9.83;4.23;;;;;;;;;;10292682;28;20041;-65
2021/01/14 06:24:44;;;;;;;15.20;4.10;;;;;;;;;;10284803;28;20091;-64
2021/01/14 06:29:42;;;;;;;6.60;3.28;;;;;;;;;;10281165;28;20085;-65
2021/01/14 06:34:43;;;;;;;6.95;3.63;;;;;;;;;;10267215;28;20018;-64
2021/01/14 06:39:45;;;;;;;7.35;2.80;;;;;;;;;;10289578;28;22082;-64
2021/01/14 06:45:01;;;;;;;5.10;2.80;;;;;;;;;;10292289;28;20056;-65
2021/01/14 06:50:17;;;;;;;7.50;3.33;;;;;;;;;;10282965;28;20080;-64
2021/01/14 06:55:15;;;;;;;4.63;2.53;;;;;;;;;;10279607;28;20034;-64
2021/01/14 07:00:13;;;;;;;;;;;;;;;;;;10276642;28;20136;-64
2021/01/14 07:05:19;;;;;;;3.42;2.33;;;;;;;;;;10282060;28;19921;-65
2021/01/14 07:10:16;;;;;;;4.03;2.75;;;;;;;;;;10289512;28;20049;-64
2021/01/14 07:15:15;;;;;;;6.20;3.13;;;;;;;;;;10274179;28;20416;-64
2021/01/14 07:20:14;;;;;;;6.63;2.85;;;;;;;;;;10265905;28;20033;-65
2021/01/14 07:25:11;;;;;;;;;;;;;;;;;;10275677;28;20068;-65
2021/01/14 07:30:09;;;;;;;4.72;2.22;;;;;;;;;;10292186;28;20362;-65
2021/01/14 07:35:27;;;;;;;10.02;2.83;;;;;;;;;;10267523;28;20041;-64
2021/01/14 07:40:28;;;;;;;6.65;2.60;;;;;;;;;;10288944;28;20044;-66
2021/01/14 07:45:26;;;;;;;4.50;2.67;;;;;;;;;;10291248;28;20741;-65
2021/01/14 07:50:27;;;;;;;6.45;3.10;;;;;;;;;;10258957;28;20063;-65
2021/01/14 07:55:28;;;;;;;4.03;2.65;;;;;;;;;;10277832;28;20045;-65
2021/01/14 08:00:26;;;;;;;3.50;2.25;;;;;;;;;;10291205;28;20034;-64
2021/01/14 08:05:38;;;;;;;6.03;2.97;;;;;;;;;;10277393;28;20531;-64
2021/01/14 08:10:35;;;;;;;5.70;2.95;;;;;;;;;;10286473;28;20046;-64
2021/01/14 08:15:36;;;;;;;5.03;2.90;;;;;;;;;;10285975;28;20388;-64
2021/01/14 08:20:33;;;;;;;4.85;2.88;;;;;;;;;;10282494;28;20037;-65
2021/01/14 08:25:34;;;;;;;6.10;3.83;;;;;;;;;;10291436;28;20495;-64
2021/01/14 08:30:38;;;;;;;5.20;2.97;;;;;;;;;;10270770;28;20085;-65
2021/01/14 08:35:38;;;;;;;6.78;2.78;;;;;;;;;;10291259;28;20087;-65
2021/01/14 08:40:36;;;;;;;8.35;2.95;;;;;;;;;;10290381;28;20125;-66
2021/01/14 08:45:42;;;;;;;4.15;2.95;;;;;;;;;;10296271;28;20042;-65
2021/01/14 08:50:44;;;;;;;3.25;2.60;;;;;;;;;;10289023;28;20995;-64
2021/01/14 08:55:42;;;;;;;5.43;2.92;;;;;;;;;;10295409;28;20747;-64
2021/01/14 09:00:46;;;;;;;6.47;2.90;;;;;;;;;;10290024;28;20030;-64
2021/01/14 09:05:44;;;;;;;4.43;2.13;;;;;;;;;;10284713;28;20560;-64
2021/01/14 09:10:42;;;;;;;5.85;2.92;;;;;;;;;;10283783;28;20946;-63
2021/01/14 09:15:40;;;;;;;6.35;3.00;;;;;;;;;;10283152;28;20049;-66
2021/01/14 09:20:42;;;;;;;6.35;3.63;;;;;;;;;;10294753;28;20036;-65
2021/01/14 09:25:39;;;;;;;9.00;3.45;;;;;;;;;;10277756;28;20039;-65
2021/01/14 09:30:37;;;;;;;6.53;3.10;;;;;;;;;;10289465;28;20510;-65
2021/01/14 09:35:34;;;;;;;4.72;2.58;;;;;;;;;;10270228;28;20117;-64
2021/01/14 09:40:32;;;;;;;3.33;2.47;;;;;;;;;;10284420;28;20040;-65
2021/01/14 09:45:29;;;;;;;7.47;3.10;;;;;;;;;;10290826;28;20041;-64
2021/01/14 09:50:27;;;;;;;6.23;2.73;;;;;;;;;;10260829;28;20044;-65
2021/01/14 09:55:24;;;;;;;5.97;3.33;;;;;;;;;;10251183;28;20040;-66
2021/01/14 10:00:25;;;;;;;8.40;3.33;;;;;;;;;;10284421;28;20029;-63
2021/01/14 10:05:23;;;;;;;6.63;2.97;;;;;;;;;;10268232;28;20045;-64
2021/01/14 10:10:21;;;;;;;6.53;3.00;;;;;;;;;;10276494;28;20526;-65
2021/01/14 10:15:19;;;;;;;6.30;3.08;;;;;;;;;;10260433;28;20048;-64
2021/01/14 10:20:16;;;;;;;6.65;3.50;;;;;;;;;;10273708;28;20077;-65
2021/01/14 10:25:20;;;;;;;3.45;2.20;;;;;;;;;;10365104;27;20376;-62
2021/01/14 10:30:19;;;;;;;6.45;2.58;;;;;;;;;;10294780;28;20849;-62
2021/01/14 10:35:24;;;;;;;5.32;3.30;;;;;;;;;;10294028;28;20123;-62
2021/01/14 10:40:26;;;;;;;4.78;2.95;;;;;;;;;;10303333;28;20057;-63
2021/01/14 10:45:24;;;;;;;5.55;2.90;;;;;;;;;;10289794;28;20116;-62
2021/01/14 10:50:26;;;;;;;7.30;3.25;;;;;;;;;;10239213;28;20458;-63
2021/01/14 10:55:24;;;;;;;5.68;3.67;;;;;;;;;;10275935;28;20029;-63
2021/01/14 11:00:26;;;;;;;3.47;2.30;;;;;;;;;;10289280;28;20028;-62
2021/01/14 11:05:37;;;;;;;4.95;2.35;;;;;;;;;;10285127;28;20053;-62
2021/01/14 11:10:35;;;;;;;4.40;2.88;;;;;;;;;;10281407;28;20039;-63
2021/01/14 11:15:32;;;;;;;7.37;3.07;;;;;;;;;;10268750;28;20760;-63
2021/01/14 11:20:33;;;;;;;3.97;2.43;;;;;;;;;;10268684;28;20033;-62
2021/01/14 11:25:30;;;;;;;5.05;2.40;;;;;;;;;;10279379;28;20037;-62
2021/01/14 11:30:28;;;;;;;7.73;1.97;;;;;;;;;;10291405;28;20042;-63
2021/01/14 11:35:26;;;;;;;5.60;1.83;;;;;;;;;;10263774;28;20409;-62
2021/01/14 11:40:23;;;;;;;2.70;2.07;;;;;;;;;;10258431;28;20284;-62
2021/01/14 11:45:20;;;;;;;3.37;2.37;;;;;;;;;;10251876;28;20432;-62
2021/01/14 11:50:22;;;;;;;5.23;1.40;;;;;;;;;;10256851;28;20071;-62
2021/01/14 11:55:21;;;;;;;3.42;1.80;;;;;;;;;;10251658;28;20042;-63
2021/01/14 12:00:18;;;;;;;4.35;2.63;;;;;;;;;;10256663;28;20033;-63
2021/01/14 12:05:16;;;;;;;1.83;1.30;;;;;;;;;;10263550;28;20096;-62
2021/01/14 12:10:13;;;;;;;4.43;1.60;;;;;;;;;;10262052;28;20033;-62
2021/01/14 12:15:11;;;;;;;2.97;1.80;;;;;;;;;;10245405;28;20045;-62
2021/01/14 12:20:08;;;;;;;3.40;2.13;;;;;;;;;;10245643;28;20040;-62
2021/01/14 12:25:07;;;;;;;2.70;1.37;;;;;;;;;;10245785;28;21130;-61
2021/01/14 12:30:04;;;;;;;;;;;;;;;;;;10270496;28;20394;-62
2021/01/14 12:35:03;;;;;;;1.98;1.58;;;;;;;;;;10237194;28;19960;-62
2021/01/14 12:40:00;;;;;;;3.17;2.33;;;;;;;;;;10256310;28;20046;-63
2021/01/14 12:44:58;;;;;;;3.53;1.73;;;;;;;;;;10267374;28;20053;-63
2021/01/14 12:49:55;;;;;;;2.50;1.20;;;;;;;;;;10248898;28;20505;-64
2021/01/14 12:54:52;;;;;;;7.10;2.57;;;;;;;;;;10228487;28;20033;-62
2021/01/14 12:59:50;;;;;;;2.20;1.73;;;;;;;;;;10271331;28;20041;-62
2021/01/14 13:04:47;;;;;;;3.63;2.50;;;;;;;;;;10269162;28;20423;-62
2021/01/14 13:09:45;;;;;;;1.73;0.80;;;;;;;;;;10239953;28;20036;-63
2021/01/14 13:14:42;;;;;;;3.17;1.70;;;;;;;;;;10252151;28;20033;-62
2021/01/14 13:19:40;;;;;;;2.47;1.25;;;;;;;;;;10239042;28;20117;-62
2021/01/14 13:24:39;;;;;;;2.80;1.93;;;;;;;;;;10258950;28;20056;-62
2021/01/14 13:29:36;;;;;;;2.72;1.60;;;;;;;;;;10242818;28;20265;-63
2021/01/14 13:34:33;;;;;;;1.00;1.00;;;;;;;;;;10233314;28;20526;-62
2021/01/14 13:39:31;;;;;;;3.10;1.77;;;;;;;;;;10258710;28;20488;-62
2021/01/14 13:44:29;;;;;;;2.60;1.45;;;;;;;;;;10260723;28;20482;-63
2021/01/14 13:49:26;;;;;;;3.60;2.00;;;;;;;;;;10254104;28;20433;-63
2021/01/14 13:54:24;;;;;;;5.57;2.20;;;;;;;;;;10216411;28;20037;-63
2021/01/14 13:59:21;;;;;;;5.73;1.33;;;;;;;;;;10238581;28;20907;-62
2021/01/14 14:04:19;;;;;;;2.40;1.53;;;;;;;;;;10241515;28;20033;-62
2021/01/14 14:09:17;;;;;;;0.70;0.70;;;;;;;;;;10243368;28;20136;-62
2021/01/14 14:14:15;;;;;;;1.05;0.75;;;;;;;;;;10249228;28;20072;-62
2021/01/14 14:19:12;;;;;;;;;;;;;;;;;;10194102;28;20112;-62
2021/01/14 14:24:11;;;;;;;0.30;0.30;;;;;;;;;;10240964;28;20217;-62
2021/01/14 14:29:08;;;;;;;6.57;1.75;;;;;;;;;;10282536;28;20275;-62
2021/01/14 14:34:09;;;;;;;1.77;1.30;;;;;;;;;;10273213;28;20047;-62
2021/01/14 14:39:07;;;;;;;4.60;2.00;;;;;;;;;;10263592;28;20064;-62
2021/01/14 14:44:05;;;;;;;1.83;1.47;;;;;;;;;;10300927;28;20217;-62
2021/01/14 14:49:02;;;;;;;3.40;1.60;;;;;;;;;;10269118;28;20356;-62
2021/01/14 14:53:59;;;;;;;4.87;2.00;;;;;;;;;;10297677;28;20402;-62
2021/01/14 14:58:57;;;;;;;4.13;1.63;;;;;;;;;;10287562;28;20040;-62
2021/01/14 15:03:54;;;;;;;5.60;1.77;;;;;;;;;;10302716;28;20029;-62
2021/01/14 15:08:52;;;;;;;8.47;2.07;;;;;;;;;;10307000;28;20171;-62
2021/01/14 15:13:50;;;;;;;6.33;1.47;;;;;;;;;;10294504;22;20099;-64
2021/01/14 15:18:47;;;;;;;2.60;1.25;;;;;;;;;;10244048;28;20026;-66
2021/01/14 15:23:44;;;;;;;1.63;1.03;;;;;;;;;;10239370;28;20041;-66
2021/01/14 15:28:42;;;;;;;1.87;1.00;;;;;;;;;;10199047;28;20047;-66
2021/01/14 15:33:39;;;;;;;2.33;1.10;;;;;;;;;;10205007;28;20038;-65
2021/01/14 15:38:37;;;;;;;5.13;1.50;;;;;;;;;;10211322;28;20061;-66
2021/01/14 15:43:34;;;;;;;1.13;1.00;;;;;;;;;;10198428;28;20391;-66
2021/01/14 15:48:31;;;;;;;2.23;1.63;;;;;;;;;;10206220;28;20035;-65
2021/01/14 15:53:29;;;;;;;2.30;2.03;;;;;;;;;;10218369;28;20034;-66
2021/01/14 15:58:26;;;;;;;2.07;1.47;;;;;;;;;;10202422;28;20046;-65
2021/01/14 16:03:24;;;;;;;11.07;1.70;;;;;;;;;;10222013;28;20050;-67
2021/01/14 16:08:21;;;;;;;1.83;1.27;;;;;;;;;;10206714;28;20087;-66
2021/01/14 16:13:18;;;;;;;4.27;2.40;;;;;;;;;;10191372;28;20046;-66
2021/01/14 16:18:16;;;;;;;1.57;1.00;;;;;;;;;;10185953;28;20081;-66
2021/01/14 16:23:14;;;;;;;4.43;2.17;;;;;;;;;;10192536;28;20465;-65
2021/01/14 16:28:11;;;;;;;5.35;1.77;;;;;;;;;;10193862;28;20124;-65
2021/01/14 16:33:08;;;;;;;4.80;1.73;;;;;;;;;;10181106;28;20096;-65
2021/01/14 16:38:06;;;;;;;5.20;2.83;;;;;;;;;;10190863;28;20038;-65
2021/01/14 16:43:03;;;;;;;2.17;1.67;;;;;;;;;;10193419;28;20101;-66
2021/01/14 16:48:00;;;;;;;4.23;2.00;;;;;;;;;;10190811;28;20039;-64
2021/01/14 16:52:58;;;;;;;4.20;1.80;;;;;;;;;;10190074;28;20097;-66
2021/01/14 16:57:55;;;;;;;5.33;2.53;;;;;;;;;;10190792;28;20034;-63
2021/01/14 17:02:52;;;;;;;5.03;2.47;;;;;;;;;;10218199;28;20106;-65
2021/01/14 17:07:50;;;;;;;1.57;1.43;;;;;;;;;;10201124;28;20052;-66
2021/01/14 17:12:47;;;;;;;1.63;1.53;;;;;;;;;;10180646;28;20049;-66
2021/01/14 17:17:45;;;;;;;2.07;1.63;;;;;;;;;;10199472;28;20596;-65
2021/01/14 17:22:51;;;;;;;2.67;2.20;;;;;;;;;;10211082;28;20042;-65
2021/01/14 17:27:48;;;;;;;5.38;2.75;;;;;;;;;;10187880;28;20044;-64
2021/01/14 17:32:46;;;;;;;3.93;1.50;;;;;;;;;;10198233;28;20034;-63
2021/01/14 17:37:43;;;;;;;1.43;1.30;;;;;;;;;;10196859;28;20038;-65
2021/01/14 17:42:41;;;;;;;3.17;2.30;;;;;;;;;;10191512;28;20046;-63
2021/01/14 17:47:38;;;;;;;2.58;1.83;;;;;;;;;;10202621;28;20034;-63
2021/01/14 17:52:36;;;;;;;3.10;1.73;;;;;;;;;;10202116;28;20031;-63
2021/01/14 17:57:37;;;;;;;5.90;2.87;;;;;;;;;;10196444;28;20026;-63
2021/01/14 18:02:35;;;;;;;2.55;2.35;;;;;;;;;;10185708;28;20038;-62
2021/01/14 18:07:35;;;;;;;4.53;1.73;;;;;;;;;;10179336;28;20027;-63
2021/01/14 18:12:33;;;;;;;6.18;2.80;;;;;;;;;;10184633;28;20046;-64
2021/01/14 18:17:31;;;;;;;8.00;2.30;;;;;;;;;;10184215;28;21463;-64
2021/01/14 18:22:28;;;;;;;3.37;2.50;;;;;;;;;;10211212;28;20038;-64
2021/01/14 18:27:26;;;;;;;2.20;1.80;;;;;;;;;;10219594;28;20097;-64
2021/01/14 18:32:23;;;;;;;3.80;3.10;;;;;;;;;;10179002;28;21744;-64
2021/01/14 18:37:21;;;;;;;3.87;2.73;;;;;;;;;;10184836;28;20047;-63
2021/01/14 18:42:18;;;;;;;4.00;2.67;;;;;;;;;;10204624;28;20045;-64
2021/01/14 18:47:15;;;;;;;7.80;3.57;;;;;;;;;;10196396;28;20035;-63
2021/01/14 18:52:13;;;;;;;4.03;1.80;;;;;;;;;;10207194;28;20035;-63
2021/01/14 18:57:10;;;;;;;3.67;3.20;;;;;;;;;;10175794;28;20039;-64
2021/01/14 19:02:08;;;;;;;5.77;3.17;;;;;;;;;;10198728;28;20049;-63
2021/01/14 19:07:08;;;;;;;2.27;1.67;;;;;;;;;;10214197;28;20045;-64
2021/01/14 19:12:08;;;;;;;6.15;3.17;;;;;;;;;;10223772;28;20493;-65
2021/01/14 19:17:06;;;;;;;5.45;3.40;;;;;;;;;;10194812;28;20045;-63
2021/01/14 19:22:04;;;;;;;4.07;2.42;;;;;;;;;;10208291;28;20310;-64
2021/01/14 19:27:01;;;;;;;4.93;2.93;;;;;;;;;;10194110;28;20038;-64
2021/01/14 19:32:01;;;;;;;7.13;3.50;;;;;;;;;;10177466;28;20049;-66
2021/01/14 19:37:01;;;;;;;5.75;2.67;;;;;;;;;;10206803;28;20038;-64
2021/01/14 19:41:58;;;;;;;5.13;3.67;;;;;;;;;;10213164;28;20042;-64
2021/01/14 19:46:56;;;;;;;5.60;2.50;;;;;;;;;;10202816;28;20035;-64
2021/01/14 19:51:53;;;;;;;6.13;3.67;;;;;;;;;;10210363;28;20269;-65
2021/01/14 19:56:51;;;;;;;8.47;4.77;;;;;;;;;;10216098;28;20040;-64
2021/01/14 20:01:48;;;;;;;6.00;3.40;;;;;;;;;;10203433;28;20046;-65
2021/01/14 20:06:52;;;;;;;7.17;3.50;;;;;;;;;;10200028;28;20058;-63
2021/01/14 20:11:50;;;;;;;6.97;3.72;;;;;;;;;;10184392;28;20043;-63
2021/01/14 20:16:51;;;;;;;6.67;3.97;;;;;;;;;;10205489;28;20155;-63
2021/01/14 20:21:52;;;;;;;8.50;3.60;;;;;;;;;;10188011;28;20877;-64
2021/01/14 20:26:53;;;;;;;6.57;3.53;;;;;;;;;;10185672;28;20387;-63
2021/01/14 20:31:54;;;;;;;8.27;4.30;;;;;;;;;;10192694;28;20121;-64
2021/01/14 20:36:57;;;;;;;7.60;3.25;;;;;;;;;;10190867;28;20401;-65
2021/01/14 20:41:57;;;;;;;9.77;4.78;;;;;;;;;;10197206;28;20057;-65
2021/01/14 20:46:56;;;;;;;8.73;5.10;;;;;;;;;;10189013;28;20050;-65
2021/01/14 20:51:54;;;;;;;5.22;2.88;;;;;;;;;;10199614;28;20123;-64
2021/01/14 20:56:51;;;;;;;5.32;2.03;;;;;;;;;;10188902;28;20176;-65
2021/01/14 21:01:49;;;;;;;8.83;3.83;;;;;;;;;;10206731;28;20535;-64
2021/01/14 21:06:46;;;;;;;5.23;3.50;;;;;;;;;;10196805;28;20033;-64
2021/01/14 21:11:44;;;;;;;5.37;3.80;;;;;;;;;;10194937;28;20030;-65
2021/01/14 21:16:46;;;;;;;3.80;3.00;;;;;;;;;;10188238;28;20117;-65
2021/01/14 21:21:44;;;;;;;7.32;3.05;;;;;;;;;;10186352;28;20034;-64
2021/01/14 21:26:41;;;;;;;3.30;2.67;;;;;;;;;;10211472;28;20042;-64
2021/01/14 21:31:40;;;;;;;3.20;2.47;;;;;;;;;;10202408;28;20431;-65
2021/01/14 21:36:37;;;;;;;6.20;3.45;;;;;;;;;;10188598;28;20034;-66
2021/01/14 21:41:35;;;;;;;4.43;1.90;;;;;;;;;;10216113;28;20092;-64
2021/01/14 21:46:32;;;;;;;2.45;2.25;;;;;;;;;;10197188;28;20501;-65
2021/01/14 21:51:30;;;;;;;10.60;3.60;;;;;;;;;;10203824;28;20076;-63
2021/01/14 21:56:31;;;;;;;2.57;2.37;;;;;;;;;;10184836;28;20042;-65
2021/01/14 22:01:31;;;;;;;3.22;2.92;;;;;;;;;;10210785;28;20043;-66
2021/01/14 22:06:38;;;;;;;7.72;3.58;;;;;;;;;;10194522;28;20388;-64
2021/01/14 22:11:36;;;;;;;5.18;2.65;;;;;;;;;;10216152;28;20519;-65
2021/01/14 22:16:34;;;;;;;3.97;2.42;;;;;;;;;;10189544;28;20056;-63
2021/01/14 22:21:32;;;;;;;2.63;2.35;;;;;;;;;;10215664;28;20042;-65
2021/01/14 22:26:30;;;;;;;2.17;1.97;;;;;;;;;;10193650;28;20540;-66
2021/01/14 22:31:35;;;;;;;2.20;2.10;;;;;;;;;;10199176;28;20386;-65
2021/01/14 22:36:36;;;;;;;3.95;2.47;;;;;;;;;;10234744;28;20044;-65
2021/01/14 22:41:34;;;;;;;6.05;2.83;;;;;;;;;;10217864;28;20033;-65
2021/01/14 22:46:32;;;;;;;4.30;2.92;;;;;;;;;;10212972;28;20034;-65
2021/01/14 22:51:30;;;;;;;5.70;3.53;;;;;;;;;;10199901;28;20039;-64
2021/01/14 22:56:31;;;;;;;5.75;3.10;;;;;;;;;;10202294;28;20051;-64
2021/01/14 23:01:35;;;;;;;6.70;3.33;;;;;;;;;;10205669;28;20122;-64
2021/01/14 23:06:32;;;;;;;5.63;2.63;;;;;;;;;;10202087;28;20483;-64
2021/01/14 23:11:30;;;;;;;7.57;3.80;;;;;;;;;;10204885;28;20061;-65
2021/01/14 23:16:28;;;;;;;6.90;3.57;;;;;;;;;;10187153;28;20449;-65
2021/01/14 23:21:26;;;;;;;7.45;3.30;;;;;;;;;;10198109;28;20374;-63
2021/01/14 23:26:23;;;;;;;1.57;1.47;;;;;;;;;;10169916;28;20192;-63
2021/01/14 23:31:20;;;;;;;4.10;2.47;;;;;;;;;;10199752;28;20019;-63
2021/01/14 23:36:19;;;;;;;3.83;1.70;;;;;;;;;;10183967;28;20034;-64
2021/01/14 23:41:20;;;;;;;6.35;3.42;;;;;;;;;;10216993;28;20073;-63
2021/01/14 23:46:18;;;;;;;4.35;3.38;;;;;;;;;;10220853;28;20069;-64
2021/01/14 23:51:16;;;;;;;12.43;3.57;;;;;;;;;;10221117;28;20078;-63
2021/01/14 23:56:14;;;;;;;;;;;;;;;;;;10212981;28;20023;-64
